sensor_id;sensor_type;location;lat;lon;timestamp;P1;durP1;ratioP1;P2;durP2;ratioP2
45836;SDS011;31548;51.420;-0.040;2022-07-23T00:00:28;4.68;;;0.60;;
45836;SDS011;31548;51.420;-0.040;2022-07-23T00:03:04;3.40;;;0.65;;
45836;SDS011;31548;51.420;-0.040;2022-07-23T00:05:31;2.65;;;0.50;;
45836;SDS011;31548;51.420;-0.040;2022-07-23T00:08:01;2.17;;;0.30;;
45836;SDS011;31548;51.420;-0.040;2022-07-23T00:10:28;2.30;;;0.30;;
45836;SDS011;31548;51.420;-0.040;2022-07-23T00:12:55;2.58;;;0.30;;
45836;SDS011;31548;51.420;-0.040;2022-07-23T00:15:23;1.52;;;0.40;;
45836;SDS011;31548;51.420;-0.040;2022-07-23T00:17:50;2.88;;;0.38;;
45836;SDS011;31548;51.420;-0.040;2022-07-23T00:20:18;2.40;;;0.50;;
45836;SDS011;31548;51.420;-0.040;2022-07-23T00:22:49;2.75;;;0.40;;
45836;SDS011;31548;51.420;-0.040;2022-07-23T00:25:17;0.63;;;0.30;;
45836;SDS011;31548;51.420;-0.040;2022-07-23T00:27:56;2.13;;;0.45;;
45836;SDS011;31548;51.420;-0.040;2022-07-23T00:30:28;2.30;;;0.40;;
45836;SDS011;31548;51.420;-0.040;2022-07-23T00:32:58;0.47;;;0.30;;
45836;SDS011;31548;51.420;-0.040;2022-07-23T00:35:28;1.08;;;0.30;;
45836;SDS011;31548;51.420;-0.040;2022-07-23T00:37:57;3.35;;;0.30;;
45836;SDS011;31548;51.420;-0.040;2022-07-23T00:40:25;0.95;;;0.40;;
45836;SDS011;31548;51.420;-0.040;2022-07-23T00:42:53;2.70;;;0.30;;
45836;SDS011;31548;51.420;-0.040;2022-07-23T00:45:21;0.63;;;0.30;;
45836;SDS011;31548;51.420;-0.040;2022-07-23T00:47:48;5.25;;;0.47;;
45836;SDS011;31548;51.420;-0.040;2022-07-23T00:50:16;0.70;;;0.30;;
45836;SDS011;31548;51.420;-0.040;2022-07-23T00:52:43;1.90;;;0.60;;
45836;SDS011;31548;51.420;-0.040;2022-07-23T00:55:11;1.30;;;0.40;;
45836;SDS011;31548;51.420;-0.040;2022-07-23T00:57:39;0.40;;;0.30;;
45836;SDS011;31548;51.420;-0.040;2022-07-23T01:00:08;3.72;;;0.95;;
45836;SDS011;31548;51.420;-0.040;2022-07-23T01:02:38;1.48;;;0.38;;
45836;SDS011;31548;51.420;-0.040;2022-07-23T01:05:06;4.30;;;0.40;;
45836;SDS011;31548;51.420;-0.040;2022-07-23T01:07:34;2.33;;;0.40;;
45836;SDS011;31548;51.420;-0.040;2022-07-23T01:10:03;2.53;;;0.30;;
45836;SDS011;31548;51.420;-0.040;2022-07-23T01:12:51;0.52;;;0.20;;
45836;SDS011;31548;51.420;-0.040;2022-07-23T01:15:19;5.90;;;1.05;;
45836;SDS011;31548;51.420;-0.040;2022-07-23T01:17:46;1.45;;;0.40;;
45836;SDS011;31548;51.420;-0.040;2022-07-23T01:20:13;1.00;;;0.40;;
45836;SDS011;31548;51.420;-0.040;2022-07-23T01:22:42;4.25;;;0.40;;
45836;SDS011;31548;51.420;-0.040;2022-07-23T01:25:10;0.68;;;0.30;;
45836;SDS011;31548;51.420;-0.040;2022-07-23T01:27:40;1.73;;;0.40;;
45836;SDS011;31548;51.420;-0.040;2022-07-23T01:30:08;1.52;;;0.40;;
45836;SDS011;31548;51.420;-0.040;2022-07-23T01:32:36;2.25;;;0.40;;
45836;SDS011;31548;51.420;-0.040;2022-07-23T01:35:03;4.18;;;0.40;;
45836;SDS011;31548;51.420;-0.040;2022-07-23T01:37:33;4.32;;;0.50;;
45836;SDS011;31548;51.420;-0.040;2022-07-23T01:40:02;0.88;;;0.30;;
45836;SDS011;31548;51.420;-0.040;2022-07-23T01:42:31;0.68;;;0.30;;
45836;SDS011;31548;51.420;-0.040;2022-07-23T01:45:01;2.33;;;0.50;;
45836;SDS011;31548;51.420;-0.040;2022-07-23T01:47:30;0.63;;;0.40;;
45836;SDS011;31548;51.420;-0.040;2022-07-23T01:49:57;2.95;;;0.25;;
45836;SDS011;31548;51.420;-0.040;2022-07-23T01:52:51;2.08;;;0.40;;
45836;SDS011;31548;51.420;-0.040;2022-07-23T01:55:18;1.00;;;0.25;;
45836;SDS011;31548;51.420;-0.040;2022-07-23T01:57:48;2.88;;;0.40;;
45836;SDS011;31548;51.420;-0.040;2022-07-23T02:00:19;4.13;;;0.50;;
45836;SDS011;31548;51.420;-0.040;2022-07-23T02:02:48;1.50;;;0.40;;
45836;SDS011;31548;51.420;-0.040;2022-07-23T02:05:15;1.63;;;0.38;;
45836;SDS011;31548;51.420;-0.040;2022-07-23T02:07:44;2.00;;;0.35;;
45836;SDS011;31548;51.420;-0.040;2022-07-23T02:10:11;2.13;;;0.40;;
45836;SDS011;31548;51.420;-0.040;2022-07-23T02:12:39;2.15;;;0.50;;
45836;SDS011;31548;51.420;-0.040;2022-07-23T02:15:08;1.77;;;0.43;;
45836;SDS011;31548;51.420;-0.040;2022-07-23T02:17:39;0.52;;;0.30;;
45836;SDS011;31548;51.420;-0.040;2022-07-23T02:20:07;0.73;;;0.25;;
45836;SDS011;31548;51.420;-0.040;2022-07-23T02:22:36;1.33;;;0.30;;
45836;SDS011;31548;51.420;-0.040;2022-07-23T02:25:07;0.70;;;0.40;;
45836;SDS011;31548;51.420;-0.040;2022-07-23T02:27:36;0.88;;;0.40;;
45836;SDS011;31548;51.420;-0.040;2022-07-23T02:30:05;1.90;;;0.30;;
45836;SDS011;31548;51.420;-0.040;2022-07-23T02:32:33;2.42;;;0.73;;
45836;SDS011;31548;51.420;-0.040;2022-07-23T02:35:01;1.23;;;0.50;;
45836;SDS011;31548;51.420;-0.040;2022-07-23T02:37:30;4.82;;;0.55;;
45836;SDS011;31548;51.420;-0.040;2022-07-23T02:39:58;2.33;;;0.98;;
45836;SDS011;31548;51.420;-0.040;2022-07-23T02:42:25;1.85;;;0.40;;
45836;SDS011;31548;51.420;-0.040;2022-07-23T02:44:52;1.10;;;0.50;;
45836;SDS011;31548;51.420;-0.040;2022-07-23T02:47:20;2.05;;;0.50;;
45836;SDS011;31548;51.420;-0.040;2022-07-23T02:49:47;1.30;;;0.45;;
45836;SDS011;31548;51.420;-0.040;2022-07-23T02:52:15;5.82;;;0.40;;
45836;SDS011;31548;51.420;-0.040;2022-07-23T02:54:42;2.03;;;0.40;;
45836;SDS011;31548;51.420;-0.040;2022-07-23T02:57:13;1.58;;;0.70;;
45836;SDS011;31548;51.420;-0.040;2022-07-23T02:59:41;0.95;;;0.40;;
45836;SDS011;31548;51.420;-0.040;2022-07-23T03:02:09;1.48;;;0.40;;
45836;SDS011;31548;51.420;-0.040;2022-07-23T03:04:37;2.20;;;0.50;;
45836;SDS011;31548;51.420;-0.040;2022-07-23T03:07:04;2.72;;;0.60;;
45836;SDS011;31548;51.420;-0.040;2022-07-23T03:09:31;1.45;;;0.43;;
45836;SDS011;31548;51.420;-0.040;2022-07-23T03:11:59;1.20;;;0.50;;
45836;SDS011;31548;51.420;-0.040;2022-07-23T03:14:26;2.20;;;0.40;;
45836;SDS011;31548;51.420;-0.040;2022-07-23T03:16:55;6.35;;;0.40;;
45836;SDS011;31548;51.420;-0.040;2022-07-23T03:19:22;1.52;;;0.60;;
45836;SDS011;31548;51.420;-0.040;2022-07-23T03:21:50;2.45;;;0.50;;
45836;SDS011;31548;51.420;-0.040;2022-07-23T03:24:18;0.70;;;0.30;;
45836;SDS011;31548;51.420;-0.040;2022-07-23T03:26:45;3.17;;;1.52;;
45836;SDS011;31548;51.420;-0.040;2022-07-23T03:29:12;1.13;;;0.40;;
45836;SDS011;31548;51.420;-0.040;2022-07-23T03:31:41;2.75;;;0.30;;
45836;SDS011;31548;51.420;-0.040;2022-07-23T03:34:08;1.77;;;0.43;;
45836;SDS011;31548;51.420;-0.040;2022-07-23T03:36:35;2.40;;;0.47;;
45836;SDS011;31548;51.420;-0.040;2022-07-23T03:39:05;1.65;;;0.40;;
45836;SDS011;31548;51.420;-0.040;2022-07-23T03:41:38;2.88;;;0.40;;
45836;SDS011;31548;51.420;-0.040;2022-07-23T03:44:05;3.05;;;0.40;;
45836;SDS011;31548;51.420;-0.040;2022-07-23T03:46:32;3.97;;;0.40;;
45836;SDS011;31548;51.420;-0.040;2022-07-23T03:49:00;1.88;;;0.40;;
45836;SDS011;31548;51.420;-0.040;2022-07-23T03:51:27;1.30;;;0.40;;
45836;SDS011;31548;51.420;-0.040;2022-07-23T03:53:55;1.10;;;0.50;;
45836;SDS011;31548;51.420;-0.040;2022-07-23T03:56:23;2.90;;;0.50;;
45836;SDS011;31548;51.420;-0.040;2022-07-23T03:58:50;2.03;;;0.43;;
45836;SDS011;31548;51.420;-0.040;2022-07-23T04:01:17;2.08;;;0.40;;
45836;SDS011;31548;51.420;-0.040;2022-07-23T04:03:44;3.25;;;0.52;;
45836;SDS011;31548;51.420;-0.040;2022-07-23T04:06:13;1.20;;;0.40;;
45836;SDS011;31548;51.420;-0.040;2022-07-23T04:08:40;5.72;;;0.90;;
45836;SDS011;31548;51.420;-0.040;2022-07-23T04:11:07;0.63;;;0.40;;
45836;SDS011;31548;51.420;-0.040;2022-07-23T04:13:35;2.70;;;0.52;;
45836;SDS011;31548;51.420;-0.040;2022-07-23T04:16:03;3.15;;;0.40;;
45836;SDS011;31548;51.420;-0.040;2022-07-23T04:18:30;2.53;;;0.57;;
45836;SDS011;31548;51.420;-0.040;2022-07-23T04:21:06;4.65;;;0.70;;
45836;SDS011;31548;51.420;-0.040;2022-07-23T04:23:35;2.70;;;0.50;;
45836;SDS011;31548;51.420;-0.040;2022-07-23T04:26:04;1.23;;;0.45;;
45836;SDS011;31548;51.420;-0.040;2022-07-23T04:28:31;3.95;;;0.60;;
45836;SDS011;31548;51.420;-0.040;2022-07-23T04:31:00;4.20;;;0.60;;
45836;SDS011;31548;51.420;-0.040;2022-07-23T04:33:28;1.65;;;0.63;;
45836;SDS011;31548;51.420;-0.040;2022-07-23T04:35:58;1.15;;;0.55;;
45836;SDS011;31548;51.420;-0.040;2022-07-23T04:38:26;3.63;;;0.70;;
45836;SDS011;31548;51.420;-0.040;2022-07-23T04:40:58;1.63;;;0.40;;
45836;SDS011;31548;51.420;-0.040;2022-07-23T04:43:26;4.00;;;0.57;;
45836;SDS011;31548;51.420;-0.040;2022-07-23T04:45:54;6.85;;;0.80;;
45836;SDS011;31548;51.420;-0.040;2022-07-23T04:48:21;2.55;;;0.50;;
45836;SDS011;31548;51.420;-0.040;2022-07-23T04:50:56;1.65;;;0.70;;
45836;SDS011;31548;51.420;-0.040;2022-07-23T04:53:26;3.53;;;0.60;;
45836;SDS011;31548;51.420;-0.040;2022-07-23T04:55:58;3.08;;;0.60;;
45836;SDS011;31548;51.420;-0.040;2022-07-23T04:58:25;3.20;;;0.65;;
45836;SDS011;31548;51.420;-0.040;2022-07-23T05:00:52;3.90;;;0.70;;
45836;SDS011;31548;51.420;-0.040;2022-07-23T05:03:20;2.42;;;0.75;;
45836;SDS011;31548;51.420;-0.040;2022-07-23T05:05:48;5.75;;;0.90;;
45836;SDS011;31548;51.420;-0.040;2022-07-23T05:08:17;2.72;;;0.90;;
45836;SDS011;31548;51.420;-0.040;2022-07-23T05:10:49;4.95;;;0.60;;
45836;SDS011;31548;51.420;-0.040;2022-07-23T05:13:18;6.28;;;0.70;;
45836;SDS011;31548;51.420;-0.040;2022-07-23T05:15:45;3.38;;;1.00;;
45836;SDS011;31548;51.420;-0.040;2022-07-23T05:18:13;5.57;;;1.20;;
45836;SDS011;31548;51.420;-0.040;2022-07-23T05:20:41;3.83;;;1.25;;
45836;SDS011;31548;51.420;-0.040;2022-07-23T05:23:10;3.33;;;1.05;;
45836;SDS011;31548;51.420;-0.040;2022-07-23T05:25:37;2.65;;;1.00;;
45836;SDS011;31548;51.420;-0.040;2022-07-23T05:28:06;10.02;;;1.08;;
45836;SDS011;31548;51.420;-0.040;2022-07-23T05:30:33;3.00;;;1.63;;
45836;SDS011;31548;51.420;-0.040;2022-07-23T05:33:04;4.57;;;1.05;;
45836;SDS011;31548;51.420;-0.040;2022-07-23T05:35:31;2.78;;;1.08;;
45836;SDS011;31548;51.420;-0.040;2022-07-23T05:38:27;4.20;;;0.85;;
45836;SDS011;31548;51.420;-0.040;2022-07-23T05:40:58;2.88;;;1.10;;
45836;SDS011;31548;51.420;-0.040;2022-07-23T05:43:26;3.85;;;0.93;;
45836;SDS011;31548;51.420;-0.040;2022-07-23T05:45:54;2.72;;;0.80;;
45836;SDS011;31548;51.420;-0.040;2022-07-23T05:48:23;6.30;;;0.95;;
45836;SDS011;31548;51.420;-0.040;2022-07-23T05:51:11;5.30;;;0.70;;
45836;SDS011;31548;51.420;-0.040;2022-07-23T05:53:38;3.65;;;0.82;;
45836;SDS011;31548;51.420;-0.040;2022-07-23T05:56:13;1.95;;;0.75;;
45836;SDS011;31548;51.420;-0.040;2022-07-23T05:58:41;2.97;;;0.90;;
45836;SDS011;31548;51.420;-0.040;2022-07-23T06:01:08;8.40;;;1.15;;
45836;SDS011;31548;51.420;-0.040;2022-07-23T06:03:43;2.63;;;0.80;;
45836;SDS011;31548;51.420;-0.040;2022-07-23T06:06:11;7.78;;;1.80;;
45836;SDS011;31548;51.420;-0.040;2022-07-23T06:08:39;2.47;;;0.90;;
45836;SDS011;31548;51.420;-0.040;2022-07-23T06:11:07;5.93;;;0.73;;
45836;SDS011;31548;51.420;-0.040;2022-07-23T06:13:35;2.10;;;0.82;;
45836;SDS011;31548;51.420;-0.040;2022-07-23T06:16:02;3.50;;;0.65;;
45836;SDS011;31548;51.420;-0.040;2022-07-23T06:18:30;3.28;;;0.80;;
45836;SDS011;31548;51.420;-0.040;2022-07-23T06:20:57;4.13;;;0.80;;
45836;SDS011;31548;51.420;-0.040;2022-07-23T06:23:26;10.52;;;1.15;;
45836;SDS011;31548;51.420;-0.040;2022-07-23T06:25:54;7.20;;;1.13;;
45836;SDS011;31548;51.420;-0.040;2022-07-23T06:28:21;6.75;;;1.20;;
45836;SDS011;31548;51.420;-0.040;2022-07-23T06:30:49;4.55;;;1.65;;
45836;SDS011;31548;51.420;-0.040;2022-07-23T06:33:16;7.32;;;1.67;;
45836;SDS011;31548;51.420;-0.040;2022-07-23T06:35:44;8.00;;;1.63;;
45836;SDS011;31548;51.420;-0.040;2022-07-23T06:38:11;7.40;;;1.60;;
45836;SDS011;31548;51.420;-0.040;2022-07-23T06:40:40;9.07;;;1.95;;
45836;SDS011;31548;51.420;-0.040;2022-07-23T06:43:09;4.32;;;0.77;;
45836;SDS011;31548;51.420;-0.040;2022-07-23T06:45:37;4.30;;;1.80;;
45836;SDS011;31548;51.420;-0.040;2022-07-23T06:48:04;4.43;;;1.40;;
45836;SDS011;31548;51.420;-0.040;2022-07-23T06:50:33;4.60;;;0.98;;
45836;SDS011;31548;51.420;-0.040;2022-07-23T06:53:01;4.15;;;1.02;;
45836;SDS011;31548;51.420;-0.040;2022-07-23T06:55:28;3.88;;;0.82;;
45836;SDS011;31548;51.420;-0.040;2022-07-23T06:57:55;3.70;;;0.90;;
45836;SDS011;31548;51.420;-0.040;2022-07-23T07:00:23;5.07;;;1.00;;
45836;SDS011;31548;51.420;-0.040;2022-07-23T07:02:53;5.85;;;1.00;;
45836;SDS011;31548;51.420;-0.040;2022-07-23T07:05:21;5.35;;;0.95;;
45836;SDS011;31548;51.420;-0.040;2022-07-23T07:07:49;4.88;;;1.17;;
45836;SDS011;31548;51.420;-0.040;2022-07-23T07:10:16;7.10;;;1.30;;
45836;SDS011;31548;51.420;-0.040;2022-07-23T07:12:44;4.63;;;1.85;;
45836;SDS011;31548;51.420;-0.040;2022-07-23T07:15:12;7.63;;;1.33;;
45836;SDS011;31548;51.420;-0.040;2022-07-23T07:17:39;5.03;;;1.15;;
45836;SDS011;31548;51.420;-0.040;2022-07-23T07:20:07;4.57;;;0.90;;
45836;SDS011;31548;51.420;-0.040;2022-07-23T07:22:35;4.57;;;1.05;;
45836;SDS011;31548;51.420;-0.040;2022-07-23T07:25:02;6.00;;;1.40;;
45836;SDS011;31548;51.420;-0.040;2022-07-23T07:27:30;7.25;;;1.33;;
45836;SDS011;31548;51.420;-0.040;2022-07-23T07:29:57;3.22;;;1.42;;
45836;SDS011;31548;51.420;-0.040;2022-07-23T07:32:24;8.95;;;1.58;;
45836;SDS011;31548;51.420;-0.040;2022-07-23T07:35:11;7.72;;;1.55;;
45836;SDS011;31548;51.420;-0.040;2022-07-23T07:37:39;4.18;;;1.25;;
45836;SDS011;31548;51.420;-0.040;2022-07-23T07:40:06;6.55;;;1.25;;
45836;SDS011;31548;51.420;-0.040;2022-07-23T07:42:34;4.32;;;1.00;;
45836;SDS011;31548;51.420;-0.040;2022-07-23T07:45:01;1.95;;;0.90;;
45836;SDS011;31548;51.420;-0.040;2022-07-23T07:47:29;12.70;;;1.55;;
45836;SDS011;31548;51.420;-0.040;2022-07-23T07:49:56;6.75;;;2.17;;
45836;SDS011;31548;51.420;-0.040;2022-07-23T07:52:23;9.80;;;1.08;;
45836;SDS011;31548;51.420;-0.040;2022-07-23T07:54:50;3.70;;;1.30;;
45836;SDS011;31548;51.420;-0.040;2022-07-23T07:57:17;7.70;;;1.90;;
45836;SDS011;31548;51.420;-0.040;2022-07-23T07:59:46;4.78;;;2.17;;
45836;SDS011;31548;51.420;-0.040;2022-07-23T08:02:20;2.03;;;1.25;;
45836;SDS011;31548;51.420;-0.040;2022-07-23T08:04:48;4.13;;;1.13;;
45836;SDS011;31548;51.420;-0.040;2022-07-23T08:07:15;4.50;;;1.00;;
45836;SDS011;31548;51.420;-0.040;2022-07-23T08:09:42;5.22;;;1.23;;
45836;SDS011;31548;51.420;-0.040;2022-07-23T08:12:09;2.13;;;0.93;;
45836;SDS011;31548;51.420;-0.040;2022-07-23T08:14:37;7.75;;;1.48;;
45836;SDS011;31548;51.420;-0.040;2022-07-23T08:17:04;2.70;;;1.00;;
45836;SDS011;31548;51.420;-0.040;2022-07-23T08:19:40;3.22;;;0.80;;
45836;SDS011;31548;51.420;-0.040;2022-07-23T08:22:08;3.45;;;0.88;;
45836;SDS011;31548;51.420;-0.040;2022-07-23T08:24:36;6.82;;;1.50;;
45836;SDS011;31548;51.420;-0.040;2022-07-23T08:27:03;3.15;;;1.00;;
45836;SDS011;31548;51.420;-0.040;2022-07-23T08:29:30;3.00;;;0.80;;
45836;SDS011;31548;51.420;-0.040;2022-07-23T08:31:57;2.38;;;0.80;;
45836;SDS011;31548;51.420;-0.040;2022-07-23T08:34:24;4.60;;;0.80;;
45836;SDS011;31548;51.420;-0.040;2022-07-23T08:36:52;3.88;;;1.40;;
45836;SDS011;31548;51.420;-0.040;2022-07-23T08:39:19;3.20;;;1.25;;
45836;SDS011;31548;51.420;-0.040;2022-07-23T08:41:47;10.70;;;2.00;;
45836;SDS011;31548;51.420;-0.040;2022-07-23T08:44:15;8.27;;;1.38;;
45836;SDS011;31548;51.420;-0.040;2022-07-23T08:46:43;6.68;;;1.33;;
45836;SDS011;31548;51.420;-0.040;2022-07-23T08:49:11;4.30;;;0.95;;
45836;SDS011;31548;51.420;-0.040;2022-07-23T08:51:40;3.15;;;1.00;;
45836;SDS011;31548;51.420;-0.040;2022-07-23T08:54:08;2.75;;;0.73;;
45836;SDS011;31548;51.420;-0.040;2022-07-23T08:56:35;4.50;;;0.75;;
45836;SDS011;31548;51.420;-0.040;2022-07-23T08:59:02;2.58;;;0.70;;
45836;SDS011;31548;51.420;-0.040;2022-07-23T09:01:30;2.35;;;0.63;;
45836;SDS011;31548;51.420;-0.040;2022-07-23T09:03:57;5.65;;;0.80;;
45836;SDS011;31548;51.420;-0.040;2022-07-23T09:06:25;4.10;;;0.70;;
45836;SDS011;31548;51.420;-0.040;2022-07-23T09:08:52;3.80;;;0.60;;
45836;SDS011;31548;51.420;-0.040;2022-07-23T09:11:19;3.17;;;0.80;;
45836;SDS011;31548;51.420;-0.040;2022-07-23T09:13:47;2.75;;;0.60;;
45836;SDS011;31548;51.420;-0.040;2022-07-23T09:16:17;3.40;;;0.63;;
45836;SDS011;31548;51.420;-0.040;2022-07-23T09:18:54;1.75;;;0.73;;
45836;SDS011;31548;51.420;-0.040;2022-07-23T09:21:30;4.82;;;0.90;;
45836;SDS011;31548;51.420;-0.040;2022-07-23T09:24:08;3.60;;;1.00;;
45836;SDS011;31548;51.420;-0.040;2022-07-23T09:26:47;8.70;;;0.60;;
45836;SDS011;31548;51.420;-0.040;2022-07-23T09:29:23;3.03;;;0.88;;
45836;SDS011;31548;51.420;-0.040;2022-07-23T09:31:52;9.32;;;1.20;;
45836;SDS011;31548;51.420;-0.040;2022-07-23T09:34:21;2.90;;;0.80;;
45836;SDS011;31548;51.420;-0.040;2022-07-23T09:36:52;5.63;;;0.80;;
45836;SDS011;31548;51.420;-0.040;2022-07-23T09:39:25;3.40;;;0.60;;
45836;SDS011;31548;51.420;-0.040;2022-07-23T09:41:58;6.47;;;0.65;;
45836;SDS011;31548;51.420;-0.040;2022-07-23T09:44:43;1.17;;;0.45;;
45836;SDS011;31548;51.420;-0.040;2022-07-23T09:47:12;3.40;;;0.70;;
45836;SDS011;31548;51.420;-0.040;2022-07-23T09:49:40;1.50;;;0.65;;
45836;SDS011;31548;51.420;-0.040;2022-07-23T09:52:30;2.35;;;0.55;;
45836;SDS011;31548;51.420;-0.040;2022-07-23T09:55:05;3.17;;;0.47;;
45836;SDS011;31548;51.420;-0.040;2022-07-23T09:57:33;9.23;;;0.60;;
45836;SDS011;31548;51.420;-0.040;2022-07-23T10:00:04;2.90;;;0.45;;
45836;SDS011;31548;51.420;-0.040;2022-07-23T10:02:34;5.00;;;0.50;;
45836;SDS011;31548;51.420;-0.040;2022-07-23T10:05:20;1.88;;;0.40;;
45836;SDS011;31548;51.420;-0.040;2022-07-23T10:08:06;2.20;;;0.70;;
45836;SDS011;31548;51.420;-0.040;2022-07-23T10:10:58;3.85;;;0.47;;
45836;SDS011;31548;51.420;-0.040;2022-07-23T10:13:46;1.88;;;0.30;;
45836;SDS011;31548;51.420;-0.040;2022-07-23T10:16:52;2.25;;;0.50;;
45836;SDS011;31548;51.420;-0.040;2022-07-23T10:19:19;1.90;;;0.50;;
45836;SDS011;31548;51.420;-0.040;2022-07-23T10:21:55;2.47;;;0.40;;
45836;SDS011;31548;51.420;-0.040;2022-07-23T10:24:43;4.13;;;0.50;;
45836;SDS011;31548;51.420;-0.040;2022-07-23T10:30:05;2.50;;;0.50;;
45836;SDS011;31548;51.420;-0.040;2022-07-23T10:35:39;5.32;;;0.50;;
45836;SDS011;31548;51.420;-0.040;2022-07-23T10:43:25;2.35;;;0.50;;
45836;SDS011;31548;51.420;-0.040;2022-07-23T10:45:53;3.33;;;0.50;;
45836;SDS011;31548;51.420;-0.040;2022-07-23T10:48:21;1.45;;;0.60;;
45836;SDS011;31548;51.420;-0.040;2022-07-23T10:51:06;1.30;;;0.30;;
45836;SDS011;31548;51.420;-0.040;2022-07-23T10:59:21;2.78;;;0.52;;
45836;SDS011;31548;51.420;-0.040;2022-07-23T11:01:49;0.60;;;0.47;;
45836;SDS011;31548;51.420;-0.040;2022-07-23T11:04:18;2.05;;;0.50;;
45836;SDS011;31548;51.420;-0.040;2022-07-23T11:12:31;1.20;;;0.50;;
45836;SDS011;31548;51.420;-0.040;2022-07-23T11:15:03;2.28;;;0.40;;
45836;SDS011;31548;51.420;-0.040;2022-07-23T11:17:38;4.55;;;0.40;;
45836;SDS011;31548;51.420;-0.040;2022-07-23T11:22:36;3.30;;;0.40;;
45836;SDS011;31548;51.420;-0.040;2022-07-23T11:27:54;1.67;;;0.50;;
45836;SDS011;31548;51.420;-0.040;2022-07-23T11:30:39;4.43;;;0.60;;
45836;SDS011;31548;51.420;-0.040;2022-07-23T11:33:23;2.53;;;0.50;;
45836;SDS011;31548;51.420;-0.040;2022-07-23T11:35:59;1.83;;;0.50;;
45836;SDS011;31548;51.420;-0.040;2022-07-23T11:38:30;2.75;;;0.60;;
45836;SDS011;31548;51.420;-0.040;2022-07-23T11:40:59;1.58;;;0.50;;
45836;SDS011;31548;51.420;-0.040;2022-07-23T11:43:26;0.73;;;0.38;;
45836;SDS011;31548;51.420;-0.040;2022-07-23T11:45:56;1.42;;;0.40;;
45836;SDS011;31548;51.420;-0.040;2022-07-23T11:48:29;2.35;;;0.38;;
45836;SDS011;31548;51.420;-0.040;2022-07-23T11:51:02;2.53;;;0.38;;
45836;SDS011;31548;51.420;-0.040;2022-07-23T11:53:33;3.42;;;0.50;;
45836;SDS011;31548;51.420;-0.040;2022-07-23T11:56:04;0.52;;;0.30;;
45836;SDS011;31548;51.420;-0.040;2022-07-23T11:58:37;1.17;;;0.43;;
45836;SDS011;31548;51.420;-0.040;2022-07-23T12:01:05;0.90;;;0.40;;
45836;SDS011;31548;51.420;-0.040;2022-07-23T12:03:48;1.20;;;0.40;;
45836;SDS011;31548;51.420;-0.040;2022-07-23T12:06:17;3.80;;;0.40;;
45836;SDS011;31548;51.420;-0.040;2022-07-23T12:08:45;1.15;;;0.50;;
45836;SDS011;31548;51.420;-0.040;2022-07-23T12:11:12;3.08;;;0.50;;
45836;SDS011;31548;51.420;-0.040;2022-07-23T12:13:39;2.50;;;0.47;;
45836;SDS011;31548;51.420;-0.040;2022-07-23T12:16:06;0.65;;;0.40;;
45836;SDS011;31548;51.420;-0.040;2022-07-23T12:18:35;0.60;;;0.40;;
45836;SDS011;31548;51.420;-0.040;2022-07-23T12:21:03;1.60;;;0.38;;
45836;SDS011;31548;51.420;-0.040;2022-07-23T12:23:33;2.65;;;0.45;;
45836;SDS011;31548;51.420;-0.040;2022-07-23T12:26:02;0.40;;;0.30;;
45836;SDS011;31548;51.420;-0.040;2022-07-23T12:30:59;0.50;;;0.30;;
45836;SDS011;31548;51.420;-0.040;2022-07-23T12:33:31;0.90;;;0.30;;
45836;SDS011;31548;51.420;-0.040;2022-07-23T12:36:01;0.95;;;0.40;;
45836;SDS011;31548;51.420;-0.040;2022-07-23T12:38:38;0.85;;;0.38;;
45836;SDS011;31548;51.420;-0.040;2022-07-23T12:41:13;0.82;;;0.40;;
45836;SDS011;31548;51.420;-0.040;2022-07-23T12:43:41;2.08;;;0.75;;
45836;SDS011;31548;51.420;-0.040;2022-07-23T12:46:14;1.95;;;0.40;;
45836;SDS011;31548;51.420;-0.040;2022-07-23T12:51:22;0.68;;;0.30;;
45836;SDS011;31548;51.420;-0.040;2022-07-23T12:53:56;3.03;;;0.50;;
45836;SDS011;31548;51.420;-0.040;2022-07-23T12:56:28;0.90;;;0.40;;
45836;SDS011;31548;51.420;-0.040;2022-07-23T12:58:58;3.70;;;0.40;;
45836;SDS011;31548;51.420;-0.040;2022-07-23T13:01:41;3.65;;;0.50;;
45836;SDS011;31548;51.420;-0.040;2022-07-23T13:04:20;0.82;;;0.40;;
45836;SDS011;31548;51.420;-0.040;2022-07-23T13:06:58;1.10;;;0.40;;
45836;SDS011;31548;51.420;-0.040;2022-07-23T13:09:31;1.65;;;0.30;;
45836;SDS011;31548;51.420;-0.040;2022-07-23T13:12:07;3.72;;;0.50;;
45836;SDS011;31548;51.420;-0.040;2022-07-23T13:14:37;2.42;;;0.40;;
45836;SDS011;31548;51.420;-0.040;2022-07-23T13:17:05;0.68;;;0.40;;
45836;SDS011;31548;51.420;-0.040;2022-07-23T13:19:33;0.28;;;0.25;;
45836;SDS011;31548;51.420;-0.040;2022-07-23T13:22:01;3.83;;;0.50;;
45836;SDS011;31548;51.420;-0.040;2022-07-23T13:27:05;0.32;;;0.30;;
45836;SDS011;31548;51.420;-0.040;2022-07-23T13:29:38;1.03;;;0.40;;
45836;SDS011;31548;51.420;-0.040;2022-07-23T13:32:05;2.17;;;0.20;;
45836;SDS011;31548;51.420;-0.040;2022-07-23T13:34:39;1.50;;;0.30;;
45836;SDS011;31548;51.420;-0.040;2022-07-23T13:37:07;0.55;;;0.20;;
45836;SDS011;31548;51.420;-0.040;2022-07-23T13:39:35;0.60;;;0.30;;
45836;SDS011;31548;51.420;-0.040;2022-07-23T13:42:04;2.90;;;0.38;;
45836;SDS011;31548;51.420;-0.040;2022-07-23T13:44:34;0.60;;;0.30;;
45836;SDS011;31548;51.420;-0.040;2022-07-23T13:47:21;6.78;;;0.60;;
45836;SDS011;31548;51.420;-0.040;2022-07-23T13:49:50;1.88;;;0.30;;
45836;SDS011;31548;51.420;-0.040;2022-07-23T13:52:17;1.17;;;0.30;;
45836;SDS011;31548;51.420;-0.040;2022-07-23T13:54:45;2.38;;;0.52;;
45836;SDS011;31548;51.420;-0.040;2022-07-23T13:57:12;1.10;;;0.40;;
45836;SDS011;31548;51.420;-0.040;2022-07-23T13:59:39;0.80;;;0.30;;
45836;SDS011;31548;51.420;-0.040;2022-07-23T14:02:07;0.63;;;0.40;;
45836;SDS011;31548;51.420;-0.040;2022-07-23T14:04:48;1.77;;;0.40;;
45836;SDS011;31548;51.420;-0.040;2022-07-23T14:07:16;0.68;;;0.40;;
45836;SDS011;31548;51.420;-0.040;2022-07-23T14:09:45;1.05;;;0.30;;
45836;SDS011;31548;51.420;-0.040;2022-07-23T14:12:13;0.43;;;0.40;;
45836;SDS011;31548;51.420;-0.040;2022-07-23T14:14:43;2.22;;;0.40;;
45836;SDS011;31548;51.420;-0.040;2022-07-23T14:17:10;1.40;;;0.40;;
45836;SDS011;31548;51.420;-0.040;2022-07-23T14:19:38;1.00;;;0.57;;
45836;SDS011;31548;51.420;-0.040;2022-07-23T14:22:05;1.45;;;0.40;;
45836;SDS011;31548;51.420;-0.040;2022-07-23T14:24:33;1.13;;;0.50;;
45836;SDS011;31548;51.420;-0.040;2022-07-23T14:27:20;1.45;;;0.30;;
45836;SDS011;31548;51.420;-0.040;2022-07-23T14:29:47;3.03;;;0.40;;
45836;SDS011;31548;51.420;-0.040;2022-07-23T14:32:15;2.80;;;0.70;;
45836;SDS011;31548;51.420;-0.040;2022-07-23T14:34:42;3.50;;;0.43;;
45836;SDS011;31548;51.420;-0.040;2022-07-23T14:37:10;2.67;;;0.43;;
45836;SDS011;31548;51.420;-0.040;2022-07-23T14:39:40;1.48;;;0.50;;
45836;SDS011;31548;51.420;-0.040;2022-07-23T14:42:11;1.35;;;0.50;;
45836;SDS011;31548;51.420;-0.040;2022-07-23T14:44:39;1.02;;;0.60;;
45836;SDS011;31548;51.420;-0.040;2022-07-23T14:47:08;5.18;;;0.50;;
45836;SDS011;31548;51.420;-0.040;2022-07-23T14:49:36;1.08;;;0.57;;
45836;SDS011;31548;51.420;-0.040;2022-07-23T14:52:04;2.22;;;0.40;;
45836;SDS011;31548;51.420;-0.040;2022-07-23T14:54:33;1.50;;;0.55;;
45836;SDS011;31548;51.420;-0.040;2022-07-23T14:57:01;0.40;;;0.40;;
45836;SDS011;31548;51.420;-0.040;2022-07-23T14:59:29;0.73;;;0.30;;
45836;SDS011;31548;51.420;-0.040;2022-07-23T15:01:57;1.17;;;0.35;;
45836;SDS011;31548;51.420;-0.040;2022-07-23T15:04:25;2.15;;;0.60;;
45836;SDS011;31548;51.420;-0.040;2022-07-23T15:07:03;5.05;;;0.52;;
45836;SDS011;31548;51.420;-0.040;2022-07-23T15:09:31;2.35;;;0.40;;
45836;SDS011;31548;51.420;-0.040;2022-07-23T15:11:58;1.65;;;0.60;;
45836;SDS011;31548;51.420;-0.040;2022-07-23T15:14:26;1.17;;;0.50;;
45836;SDS011;31548;51.420;-0.040;2022-07-23T15:17:00;2.15;;;0.50;;
45836;SDS011;31548;51.420;-0.040;2022-07-23T15:19:27;0.55;;;0.40;;
45836;SDS011;31548;51.420;-0.040;2022-07-23T15:21:56;0.70;;;0.40;;
45836;SDS011;31548;51.420;-0.040;2022-07-23T15:24:28;1.23;;;0.50;;